createdAt,value
2019-05-09T00:03:09.392Z,97316.88
2019-05-09T00:13:10.314Z,97322.99
2019-05-09T00:23:13.384Z,97321.56
2019-05-09T00:33:14.302Z,97315.50
2019-05-09T00:43:16.963Z,97307.19
2019-05-09T00:53:18.030Z,97315.11
2019-05-09T01:03:18.704Z,97321.91
2019-05-09T01:13:19.567Z,97320.70
2019-05-09T01:23:20.511Z,97298.06
2019-05-09T01:33:21.301Z,97316.77
2019-05-09T01:43:24.322Z,97311.52
2019-05-09T01:53:25.037Z,97297.52
2019-05-09T02:03:27.886Z,97274.36
2019-05-09T02:13:28.597Z,97274.69
2019-05-09T02:23:29.522Z,97278.03
2019-05-09T02:33:30.221Z,97288.48
2019-05-09T02:43:31.132Z,97291.66
2019-05-09T02:53:33.000Z,97294.91
2019-05-09T03:03:33.657Z,97285.08
2019-05-09T03:13:34.582Z,97278.92
2019-05-09T03:23:38.522Z,97270.36
2019-05-09T03:33:40.650Z,97290.40
2019-05-09T03:43:41.096Z,97290.95
2019-05-09T03:53:53.751Z,97294.12
2019-05-09T04:03:54.732Z,97293.03
2019-05-09T04:13:58.043Z,97286.72
2019-05-09T04:23:58.673Z,97287.26
2019-05-09T04:33:59.649Z,97280.37
2019-05-09T04:44:00.293Z,97278.52
2019-05-09T04:54:00.979Z,97275.09
2019-05-09T05:04:01.968Z,97273.81
2019-05-09T05:14:02.745Z,97286.34
2019-05-09T05:24:03.408Z,97285.16
2019-05-09T05:34:04.294Z,97283.26
2019-05-09T05:44:04.932Z,97285.34
2019-05-09T05:54:07.803Z,97287.37
2019-05-09T06:04:08.782Z,97283.49
2019-05-09T06:14:11.933Z,97283.61
2019-05-09T06:24:12.333Z,97294.25
2019-05-09T06:34:13.246Z,97292.61
2019-05-09T06:44:17.245Z,97288.84
2019-05-09T06:54:17.460Z,97290.68
2019-05-09T07:04:18.430Z,97288.22
2019-05-09T07:14:28.971Z,97288.57
2019-05-09T07:24:23.227Z,97280.79
2019-05-09T07:34:24.103Z,97293.89
2019-05-09T07:44:24.716Z,97285.17
2019-05-09T07:54:28.481Z,97272.64
2019-05-09T08:04:29.595Z,97262.84
2019-05-09T08:14:30.563Z,97246.00
2019-05-09T08:24:31.533Z,97230.70
2019-05-09T08:34:32.431Z,97231.58
2019-05-09T08:44:33.290Z,97228.60
2019-05-09T08:54:34.177Z,97233.59
2019-05-09T09:04:38.393Z,97224.54
2019-05-09T09:14:39.434Z,97221.97
2019-05-09T09:24:41.361Z,97209.38
2019-05-09T09:34:42.023Z,97212.23
2019-05-09T09:44:42.663Z,97200.04
2019-05-09T09:54:43.457Z,97203.45
2019-05-09T10:04:44.395Z,97197.00
2019-05-09T10:14:45.304Z,97196.13
2019-05-09T10:24:47.842Z,97189.73
2019-05-09T10:34:49.520Z,97193.73
2019-05-09T10:44:50.129Z,97189.14
2019-05-09T10:54:50.978Z,97189.37
2019-05-09T11:04:51.903Z,97176.95
2019-05-09T11:14:55.798Z,97179.72
2019-05-09T11:24:57.946Z,97172.41
2019-05-09T11:34:58.947Z,97165.97
2019-05-09T11:44:59.912Z,97168.05
2019-05-09T11:55:00.593Z,97164.42
2019-05-09T12:05:01.663Z,97160.25
2019-05-09T12:15:08.598Z,97166.20
2019-05-09T12:25:09.303Z,97171.94
2019-05-09T12:35:10.038Z,97169.23
2019-05-09T12:45:12.609Z,97163.41
2019-05-09T12:55:14.356Z,97175.83
2019-05-09T13:05:15.128Z,97177.67
2019-05-09T13:15:18.525Z,97178.50
2019-05-09T13:25:20.310Z,97176.73
2019-05-09T13:35:21.201Z,97186.88
2019-05-09T13:45:22.070Z,97187.04
2019-05-09T13:55:24.004Z,97197.67
2019-05-09T14:05:25.694Z,97201.02
2019-05-09T14:15:27.469Z,97211.25
2019-05-09T14:25:29.178Z,97229.50
2019-05-09T14:35:30.229Z,97253.75
2019-05-09T14:45:31.129Z,97263.75
2019-05-09T14:55:32.094Z,97275.29
2019-05-09T15:05:32.840Z,97288.53
2019-05-09T15:15:33.559Z,97304.34
2019-05-09T15:25:34.258Z,97310.05
2019-05-09T15:35:35.018Z,97327.41
2019-05-09T15:45:36.432Z,97341.36
2019-05-09T15:55:37.526Z,97335.52
2019-05-09T16:05:38.625Z,97354.59
2019-05-09T16:15:39.641Z,97378.22
2019-05-09T16:25:40.672Z,97396.64
2019-05-09T16:35:41.484Z,97396.45
2019-05-09T16:45:42.411Z,97393.83
2019-05-09T16:55:43.301Z,97393.83
2019-05-09T17:05:44.174Z,97405.58
2019-05-09T17:15:45.237Z,97415.41
2019-05-09T17:25:47.997Z,97440.17
2019-05-09T17:35:48.518Z,97447.63
2019-05-09T17:45:49.229Z,97456.83
2019-05-09T17:55:50.161Z,97468.66
2019-05-09T18:05:51.156Z,97486.13
2019-05-09T18:15:51.898Z,97496.80
2019-05-09T18:25:52.823Z,97501.97
2019-05-09T18:35:53.627Z,97520.33
2019-05-09T18:45:54.623Z,97537.34
2019-05-09T18:55:55.692Z,97555.95
2019-05-09T19:05:56.333Z,97572.89
2019-05-09T19:15:58.436Z,97586.72
2019-05-09T19:25:59.708Z,97577.66
2019-05-09T19:36:00.697Z,97590.69
2019-05-09T19:46:02.448Z,97604.48
2019-05-09T19:56:03.091Z,97632.67
2019-05-09T20:06:04.092Z,97669.45
2019-05-09T20:16:04.916Z,97693.52
2019-05-09T20:26:05.596Z,97709.84
2019-05-09T20:36:06.589Z,97722.65
2019-05-09T20:46:10.240Z,97743.15
2019-05-09T20:56:10.068Z,97769.50
2019-05-09T21:06:13.072Z,97789.14
2019-05-09T21:16:14.077Z,97799.99
2019-05-09T21:26:18.318Z,97805.29
2019-05-09T21:36:20.294Z,97813.71
2019-05-09T21:46:21.235Z,97821.70
2019-05-09T21:56:22.224Z,97832.03
2019-05-09T22:06:23.122Z,97844.75
2019-05-09T22:16:23.795Z,97849.23
2019-05-09T22:26:24.434Z,97856.63
2019-05-09T22:36:25.155Z,97861.91
2019-05-09T22:46:25.815Z,97860.55
2019-05-09T22:56:30.509Z,97866.64
2019-05-09T23:06:31.120Z,97872.94
2019-05-09T23:16:34.142Z,97881.38
2019-05-09T23:26:34.870Z,97881.23
2019-05-09T23:36:37.647Z,97884.72
2019-05-09T23:46:38.329Z,97906.89
2019-05-09T23:56:39.435Z,97920.53
